Andrews, SC

4:42 AM EDT on July 22, 2014 (GMT -0400)
Spring Gully (KSCGEORG8) Elev 20 ft | 33.38 °N, 79.42 °W | Change Station
Active Advisory: Areal Flood Watch

Current weather conditions updated 53 seconds ago

Fog
Fog
73.6 °F
Feels Like 73.6 °F
N
0.0
Wind Variable Wind from NNW
Gusts 1.0 mph

Today is forecast to be Cooler than yesterday. Showers and thunderstorms.

Today
High -- | Low -- °F
--% Chance of Precip.
Yesterday
High -- | Low -- °F
Precip. -- in
6:23 AM 8:25 PM
Waning Crescent, 19% visible
Pressure 30.06 in
Visibility 0.5 miles
Clouds Overcast 200 ft
Dew Point 73 °F
Humidity 99%
Rainfall 0.00 in
Snow Depth Not available.
UV 0 out of 12
Pollen .50 out of 12
Air Quality Not available.
Flu Activity Sporadic
METAR KCKI 220815Z AUTO 00000KT 1/2SM FG OVC002 24/23 A3006 RMK AO2

More Conditions Fewer Conditions

Pressure 30.06 in
Visibility 0.5 miles
Clouds Overcast 200 ft
Dew Point 73 °F
Humidity 99%
Rainfall 0.00 in
Snow Depth Not available.
UV 0 out of 12
Pollen .50 out of 12
Air Quality Not available.
Flu Activity Sporadic
METAR KCKI 220815Z AUTO 00000KT 1/2SM FG OVC002 24/23 A3006 RMK AO2

More Conditions Fewer Conditions

10-Day Weather Forecast

LIGHTNING

Thunderstorms are forecast for your area. Cloud conditions might be right for producing strikes in the next few days, though lightning itself cannot be forecasted.

Lightning is a visible electrical discharge produced by a thunderstorm, based on the build up of oppositely charged particles within a cloud and from cloud to ground.

Know how to stay safe in a lightning storm.

Check out these Lightning WunderPhotos!

Almanac

Astronomy

Jul. 22, 2014 Rise Set
Actual Time 6:23 AM EDT 8:25 PM EDT
Civil Twilight 5:56 AM EDT 8:52 PM EDT
Nautical Twilight 5:22 AM EDT 9:26 PM EDT
Astronomical Twilight 4:45 AM EDT 10:02 PM EDT
Moon 2:53 AM EDT 5:02 PM EDT
Length of Visible Light 14h 56m
Length of Day
14h 01m
Tomorrow will be 1m 17s shorter.
Waning Crescent, 19% of the Moon is Illuminated
Today
Waning Crescent
Jul 26
New
Aug 3
First Quarter
Aug 10
Full
Aug 17
Last Quarter

Today's Extremes

State Highs State Lows

Community

WunderPhotos

Upload Photos

1,736,193 photos uploaded!

Nearby

Snow Depth

Station Depth Elevation
No new snow has been reported.

Earthquake Activity

City Distance Mag. Time & Date
No recent earthquake activity has been reported nearby.
Minimum magnitude displayed is 2.5.

Coastal Water Temperatures

Place Temperature
Springmaid Pier, SC 82.0 °F

Nearby Weather Stations

Station Location Temp. Heat Index Dew Point Humidity Wind Precip. Elev Updated Type
Spring Gully, Georgetown, SC 73.6 °F - 73 °F 99% NNW  at  0.0 mph 0.00 in / hr 20 ft 4:41 AM EDT Normal
Debordieu, Georgetown, SC 74.3 °F 71 °F 74 °F 98% ENE  at  0.0 mph 0.00 in / hr 36 ft 4:33 AM EDT Normal
MesoWest NERRS METEOROLOGICAL SITE AT NO, Georgetown, SC 77 °F 78 °F 74 °F 92% NNW  at  3 mph 0.00 in / hr -2 ft 3:45 AM EDT MADIS

Show More Stations Show Fewer Stations